createdAt,value
2018-11-06T00:02:23.070Z,1.00
2018-11-06T00:05:25.363Z,1.20
2018-11-06T00:07:54.203Z,1.10
2018-11-06T00:10:23.032Z,1.22
2018-11-06T00:12:51.785Z,1.17
2018-11-06T00:15:20.549Z,0.90
2018-11-06T00:17:49.313Z,0.98
2018-11-06T00:20:18.230Z,1.17
2018-11-06T00:22:47.033Z,1.00
2018-11-06T00:25:16.829Z,1.22
2018-11-06T00:27:45.584Z,0.90
2018-11-06T00:30:15.169Z,0.90
2018-11-06T00:32:44.428Z,1.10
2018-11-06T00:35:14.469Z,1.42
2018-11-06T00:37:44.258Z,1.12
2018-11-06T00:40:13.255Z,1.20
2018-11-06T00:42:42.084Z,1.20
2018-11-06T00:45:12.879Z,1.10
2018-11-06T00:47:41.997Z,0.98
2018-11-06T00:50:11.719Z,1.10
2018-11-06T00:52:41.505Z,0.95
2018-11-06T00:55:10.715Z,1.30
2018-11-06T00:57:41.098Z,0.95
2018-11-06T01:00:13.073Z,0.98
2018-11-06T01:02:42.135Z,1.20
2018-11-06T01:05:12.027Z,0.98
2018-11-06T01:07:41.001Z,1.15
2018-11-06T01:10:10.614Z,0.93
2018-11-06T01:12:39.767Z,1.20
2018-11-06T01:15:10.600Z,0.85
2018-11-06T01:17:39.439Z,1.00
2018-11-06T01:20:10.660Z,1.00
2018-11-06T01:22:39.486Z,1.10
2018-11-06T01:25:09.084Z,0.90
2018-11-06T01:27:37.946Z,1.20
2018-11-06T01:30:10.801Z,1.00
2018-11-06T01:32:39.594Z,1.10
2018-11-06T01:35:09.557Z,1.00
2018-11-06T01:37:38.330Z,1.20
2018-11-06T01:40:08.365Z,1.15
2018-11-06T01:42:37.201Z,1.00
2018-11-06T01:45:07.683Z,0.93
2018-11-06T01:47:36.508Z,1.10
2018-11-06T01:50:05.935Z,1.20
2018-11-06T01:52:34.634Z,1.10
2018-11-06T01:55:03.354Z,0.90
2018-11-06T01:57:32.109Z,0.85
2018-11-06T02:00:00.851Z,1.20
2018-11-06T02:02:29.566Z,1.07
2018-11-06T02:04:58.395Z,1.22
2018-11-06T02:07:27.133Z,0.82
2018-11-06T02:09:55.964Z,0.80
2018-11-06T02:12:24.942Z,1.05
2018-11-06T02:14:53.714Z,1.00
2018-11-06T02:17:22.411Z,1.07
2018-11-06T02:19:51.190Z,0.95
2018-11-06T02:22:19.921Z,0.90
2018-11-06T02:24:48.682Z,1.00
2018-11-06T02:27:17.376Z,0.78
2018-11-06T02:29:46.072Z,1.00
2018-11-06T02:32:14.792Z,1.10
2018-11-06T02:34:43.505Z,0.82
2018-11-06T02:37:12.266Z,1.00
2018-11-06T02:39:41.087Z,0.90
2018-11-06T02:42:09.812Z,0.70
2018-11-06T02:44:38.850Z,0.82
2018-11-06T02:47:07.918Z,0.90
2018-11-06T02:49:36.713Z,0.95
2018-11-06T02:52:05.804Z,1.27
2018-11-06T02:54:34.593Z,1.02
2018-11-06T02:57:03.301Z,1.10
2018-11-06T02:59:32.016Z,1.07
2018-11-06T03:02:00.828Z,1.00
2018-11-06T03:04:29.562Z,0.90
2018-11-06T03:06:58.284Z,1.10
2018-11-06T03:09:27.019Z,0.90
2018-11-06T03:11:55.808Z,0.80
2018-11-06T03:14:24.658Z,0.82
2018-11-06T03:16:53.471Z,0.90
2018-11-06T03:19:22.134Z,0.98
2018-11-06T03:21:50.914Z,0.90
2018-11-06T03:24:19.685Z,0.75
2018-11-06T03:26:48.390Z,1.05
2018-11-06T03:29:17.242Z,1.12
2018-11-06T03:31:46.093Z,0.93
2018-11-06T03:34:14.802Z,0.90
2018-11-06T03:36:43.536Z,1.27
2018-11-06T03:39:12.246Z,0.98
2018-11-06T03:41:40.984Z,1.00
2018-11-06T03:44:09.765Z,0.90
2018-11-06T03:46:38.510Z,1.05
2018-11-06T03:49:07.263Z,1.00
2018-11-06T03:51:36.000Z,1.02
2018-11-06T03:54:04.844Z,1.12
2018-11-06T03:56:33.577Z,1.10
2018-11-06T03:59:02.322Z,1.10
2018-11-06T04:01:31.029Z,1.00
2018-11-06T04:03:59.744Z,0.88
2018-11-06T04:06:28.507Z,0.90
2018-11-06T04:08:57.226Z,1.10
2018-11-06T04:11:25.953Z,0.80
2018-11-06T04:13:55.517Z,1.05
2018-11-06T04:16:24.211Z,1.30
2018-11-06T04:18:52.915Z,0.85
2018-11-06T04:21:26.620Z,1.02
2018-11-06T04:23:55.315Z,1.10
2018-11-06T04:26:24.081Z,1.00
2018-11-06T04:28:52.858Z,1.30
2018-11-06T04:31:21.592Z,1.25
2018-11-06T04:33:50.344Z,0.80
2018-11-06T04:36:19.080Z,1.00
2018-11-06T04:38:47.805Z,0.93
2018-11-06T04:41:16.598Z,1.22
2018-11-06T04:43:45.324Z,1.00
2018-11-06T04:46:14.004Z,1.50
2018-11-06T04:48:42.891Z,1.20
2018-11-06T04:51:11.653Z,1.20
2018-11-06T04:53:40.431Z,1.30
2018-11-06T04:56:09.152Z,1.00
2018-11-06T04:58:37.931Z,1.50
2018-11-06T05:01:06.892Z,1.40
2018-11-06T05:03:35.733Z,1.20
2018-11-06T05:06:04.533Z,1.05
2018-11-06T05:08:33.278Z,1.10
2018-11-06T05:11:02.013Z,1.10
2018-11-06T05:13:30.882Z,1.07
2018-11-06T05:16:00.439Z,1.10
2018-11-06T05:18:29.301Z,1.42
2018-11-06T05:20:58.062Z,0.90
2018-11-06T05:23:26.878Z,1.15
2018-11-06T05:25:55.693Z,1.47
2018-11-06T05:28:24.417Z,1.02
2018-11-06T05:30:53.213Z,1.10
2018-11-06T05:33:21.936Z,1.25
2018-11-06T05:35:51.653Z,1.27
2018-11-06T05:38:20.392Z,1.20
2018-11-06T05:41:03.480Z,1.30
2018-11-06T05:43:32.281Z,1.75
2018-11-06T05:46:01.084Z,1.00
2018-11-06T05:48:29.818Z,1.27
2018-11-06T05:50:58.728Z,1.22
2018-11-06T05:53:28.900Z,1.37
2018-11-06T05:55:57.698Z,1.37
2018-11-06T05:58:26.484Z,1.10
2018-11-06T06:00:55.370Z,1.00
2018-11-06T06:03:24.144Z,1.20
2018-11-06T06:05:52.963Z,1.32
2018-11-06T06:08:21.734Z,1.20
2018-11-06T06:10:50.492Z,1.10
2018-11-06T06:13:19.197Z,1.20
2018-11-06T06:15:47.942Z,1.20
2018-11-06T06:18:16.634Z,1.22
2018-11-06T06:20:52.664Z,1.30
2018-11-06T06:23:21.415Z,1.50
2018-11-06T06:25:50.208Z,1.40
2018-11-06T06:28:18.961Z,1.57
2018-11-06T06:30:47.828Z,1.20
2018-11-06T06:33:16.598Z,1.65
2018-11-06T06:35:45.304Z,2.27
2018-11-06T06:38:14.045Z,2.70
2018-11-06T06:40:42.802Z,3.17
2018-11-06T06:43:11.550Z,2.50
2018-11-06T06:45:40.277Z,2.27
2018-11-06T06:48:09.053Z,2.80
2018-11-06T06:50:37.785Z,2.55
2018-11-06T06:53:06.573Z,2.65
2018-11-06T06:55:35.330Z,3.72
2018-11-06T06:58:04.281Z,4.67
2018-11-06T07:00:33.049Z,4.30
2018-11-06T07:03:01.753Z,3.50
2018-11-06T07:05:30.488Z,2.85
2018-11-06T07:07:59.332Z,2.72
2018-11-06T07:10:28.094Z,3.47
2018-11-06T07:12:56.850Z,3.20
2018-11-06T07:15:25.585Z,2.65
2018-11-06T07:17:54.479Z,3.37
2018-11-06T07:20:24.720Z,3.02
2018-11-06T07:22:53.600Z,2.60
2018-11-06T07:25:22.367Z,2.85
2018-11-06T07:27:51.131Z,2.70
2018-11-06T07:30:22.097Z,2.60
2018-11-06T07:32:50.902Z,2.40
2018-11-06T07:35:20.197Z,2.70
2018-11-06T07:37:48.901Z,2.25
2018-11-06T07:40:18.948Z,2.58
2018-11-06T07:42:47.669Z,2.20
2018-11-06T07:45:17.936Z,2.50
2018-11-06T07:47:46.918Z,2.27
2018-11-06T07:50:16.104Z,2.02
2018-11-06T07:52:45.066Z,2.17
2018-11-06T07:55:15.085Z,1.92
2018-11-06T07:57:43.852Z,2.35
2018-11-06T08:00:19.010Z,2.22
2018-11-06T08:02:48.521Z,2.30
2018-11-06T08:05:17.521Z,2.52
2018-11-06T08:07:47.201Z,2.60
2018-11-06T08:10:15.955Z,2.83
2018-11-06T08:12:46.063Z,2.90
2018-11-06T08:15:15.153Z,2.72
2018-11-06T08:17:44.821Z,2.98
2018-11-06T08:20:13.811Z,2.70
2018-11-06T08:22:42.654Z,2.87
2018-11-06T08:25:12.665Z,2.95
2018-11-06T08:27:42.138Z,2.90
2018-11-06T08:30:11.601Z,2.87
2018-11-06T08:32:40.756Z,3.33
2018-11-06T08:35:11.796Z,3.15
2018-11-06T08:37:40.541Z,3.15
2018-11-06T08:40:10.281Z,3.52
2018-11-06T08:42:39.043Z,2.90
2018-11-06T08:45:09.579Z,3.60
2018-11-06T08:47:38.338Z,3.42
2018-11-06T08:50:08.413Z,3.20
2018-11-06T08:52:37.199Z,3.62
2018-11-06T08:55:07.001Z,3.67
2018-11-06T08:57:35.711Z,3.80
2018-11-06T09:00:05.169Z,4.35
2018-11-06T09:02:33.940Z,4.05
2018-11-06T09:05:02.993Z,4.12
2018-11-06T09:07:31.709Z,4.33
2018-11-06T09:10:00.422Z,4.40
2018-11-06T09:12:29.173Z,4.50
2018-11-06T09:14:57.989Z,4.67
2018-11-06T09:17:26.729Z,4.95
2018-11-06T09:19:55.535Z,4.80
2018-11-06T09:22:24.321Z,5.15
2018-11-06T09:24:53.075Z,5.08
2018-11-06T09:27:21.797Z,5.17
2018-11-06T09:29:50.525Z,5.10
2018-11-06T09:32:19.245Z,5.47
2018-11-06T09:34:47.992Z,5.45
2018-11-06T09:37:16.686Z,5.92
2018-11-06T09:39:45.429Z,5.15
2018-11-06T09:42:14.173Z,6.28
2018-11-06T09:44:42.905Z,6.90
2018-11-06T09:47:11.690Z,6.50
2018-11-06T09:49:40.463Z,6.22
2018-11-06T09:52:09.355Z,6.70
2018-11-06T09:54:38.037Z,6.45
2018-11-06T09:57:06.823Z,6.60
2018-11-06T09:59:35.698Z,7.30
2018-11-06T10:02:04.509Z,7.15
2018-11-06T10:04:33.233Z,7.12
2018-11-06T10:07:02.923Z,6.60
2018-11-06T10:09:31.541Z,6.90
2018-11-06T10:12:00.334Z,7.10
2018-11-06T10:14:29.068Z,7.70
2018-11-06T10:16:57.838Z,7.83
2018-11-06T10:19:26.590Z,7.08
2018-11-06T10:21:55.431Z,7.65
2018-11-06T10:24:24.156Z,7.78
2018-11-06T10:26:52.932Z,6.85
2018-11-06T10:29:22.471Z,7.47
2018-11-06T10:31:51.182Z,7.55
2018-11-06T10:34:19.978Z,7.53
2018-11-06T10:36:48.839Z,7.75
2018-11-06T10:39:17.644Z,8.95
2018-11-06T10:41:46.460Z,7.67
2018-11-06T10:44:15.200Z,8.33
2018-11-06T10:46:43.949Z,7.28
2018-11-06T10:49:12.914Z,7.87
2018-11-06T10:51:41.747Z,8.03
2018-11-06T10:54:10.711Z,7.65
2018-11-06T10:56:39.799Z,7.92
2018-11-06T10:59:08.587Z,8.25
2018-11-06T11:01:42.431Z,8.03
2018-11-06T11:04:16.444Z,8.73
2018-11-06T11:06:45.230Z,9.15
2018-11-06T11:09:14.195Z,8.45
2018-11-06T11:11:42.966Z,9.30
2018-11-06T11:14:12.338Z,8.50
2018-11-06T11:16:41.089Z,9.05
2018-11-06T11:19:09.880Z,8.83
2018-11-06T11:21:38.643Z,8.50
2018-11-06T11:24:07.422Z,8.85
2018-11-06T11:26:36.223Z,9.58
2018-11-06T11:29:05.421Z,8.88
2018-11-06T11:31:34.161Z,8.98
2018-11-06T11:34:02.994Z,8.93
2018-11-06T11:36:31.826Z,9.40
2018-11-06T11:39:00.658Z,9.43
2018-11-06T11:41:29.427Z,9.58
2018-11-06T11:43:58.169Z,9.68
2018-11-06T11:46:26.962Z,9.50
2018-11-06T11:48:55.801Z,9.43
2018-11-06T11:51:24.668Z,10.10
2018-11-06T11:53:53.457Z,9.90
2018-11-06T11:56:22.220Z,9.35
2018-11-06T11:58:51.035Z,10.40
2018-11-06T12:01:19.810Z,10.18
2018-11-06T12:03:48.594Z,9.83
2018-11-06T12:06:17.456Z,9.88
2018-11-06T12:08:46.224Z,9.55
2018-11-06T12:11:14.979Z,10.35
2018-11-06T12:13:43.749Z,10.63
2018-11-06T12:16:12.573Z,10.35
2018-11-06T12:18:41.772Z,9.83
2018-11-06T12:21:10.640Z,9.73
2018-11-06T12:23:39.475Z,9.78
2018-11-06T12:26:08.575Z,10.70
2018-11-06T12:28:37.450Z,9.48
2018-11-06T12:31:06.553Z,10.53
2018-11-06T12:33:35.343Z,10.35
2018-11-06T12:36:04.193Z,10.48
2018-11-06T12:38:33.072Z,10.00
2018-11-06T12:41:01.984Z,10.20
2018-11-06T12:43:30.820Z,11.03
2018-11-06T12:45:59.686Z,10.18
2018-11-06T12:48:28.488Z,10.68
2018-11-06T12:50:57.250Z,10.78
2018-11-06T12:53:26.154Z,9.83
2018-11-06T12:55:55.031Z,9.30
2018-11-06T12:58:23.921Z,9.93
2018-11-06T13:00:53.184Z,9.95
2018-11-06T13:03:22.478Z,10.18
2018-11-06T13:05:51.427Z,10.85
2018-11-06T13:08:20.317Z,10.30
2018-11-06T13:10:49.413Z,9.80
2018-11-06T13:13:18.703Z,10.55
2018-11-06T13:15:47.727Z,9.53
2018-11-06T13:18:16.458Z,10.13
2018-11-06T13:20:45.281Z,9.73
2018-11-06T13:23:14.076Z,10.08
2018-11-06T13:25:43.076Z,10.38
2018-11-06T13:28:12.018Z,10.10
2018-11-06T13:30:40.834Z,10.75
2018-11-06T13:33:10.084Z,10.30
2018-11-06T13:35:38.812Z,10.08
2018-11-06T13:38:07.626Z,11.35
2018-11-06T13:40:36.513Z,10.13
2018-11-06T13:43:05.609Z,10.60
2018-11-06T13:45:34.718Z,10.48
2018-11-06T13:48:03.798Z,10.35
2018-11-06T13:50:32.591Z,10.65
2018-11-06T13:53:01.367Z,11.28
2018-11-06T13:55:30.142Z,10.82
2018-11-06T13:57:58.963Z,10.88
2018-11-06T14:00:27.790Z,11.78
2018-11-06T14:02:56.598Z,11.35
2018-11-06T14:05:25.345Z,11.63
2018-11-06T14:07:54.093Z,11.73
2018-11-06T14:10:22.934Z,11.93
2018-11-06T14:12:51.773Z,12.10
2018-11-06T14:15:20.514Z,11.97
2018-11-06T14:17:49.340Z,11.90
2018-11-06T14:20:18.095Z,11.28
2018-11-06T14:22:47.051Z,11.35
2018-11-06T14:25:15.860Z,11.48
2018-11-06T14:27:44.657Z,11.45
2018-11-06T14:30:15.822Z,11.25
2018-11-06T14:32:44.830Z,11.88
2018-11-06T14:35:14.722Z,11.40
2018-11-06T14:37:44.381Z,12.00
2018-11-06T14:40:13.943Z,11.60
2018-11-06T14:42:43.430Z,12.10
2018-11-06T14:45:14.112Z,11.90
2018-11-06T14:47:43.118Z,11.45
2018-11-06T14:50:12.401Z,11.33
2018-11-06T14:52:41.227Z,10.60
2018-11-06T14:55:11.791Z,10.80
2018-11-06T14:57:40.670Z,10.45
2018-11-06T15:00:13.499Z,10.82
2018-11-06T15:02:43.129Z,11.55
2018-11-06T15:05:12.271Z,11.93
2018-11-06T15:07:41.242Z,11.40
2018-11-06T15:10:10.770Z,10.30
2018-11-06T15:12:39.629Z,11.48
2018-11-06T15:15:09.777Z,11.55
2018-11-06T15:17:38.533Z,11.33
2018-11-06T15:20:09.578Z,11.15
2018-11-06T15:22:38.545Z,11.30
2018-11-06T15:25:07.910Z,11.25
2018-11-06T15:27:36.740Z,11.75
2018-11-06T15:30:07.594Z,11.10
2018-11-06T15:32:36.479Z,10.65
2018-11-06T15:35:06.037Z,11.78
2018-11-06T15:37:34.898Z,11.78
2018-11-06T15:40:03.782Z,11.80
2018-11-06T15:42:32.601Z,11.55
2018-11-06T15:45:01.351Z,11.43
2018-11-06T15:47:30.110Z,11.78
2018-11-06T15:49:58.862Z,12.85
2018-11-06T15:52:27.689Z,12.75
2018-11-06T15:54:56.719Z,11.97
2018-11-06T15:57:25.861Z,11.70
2018-11-06T15:59:55.075Z,12.18
2018-11-06T16:02:23.838Z,12.35
2018-11-06T16:04:52.590Z,12.20
2018-11-06T16:07:21.395Z,12.28
2018-11-06T16:09:50.169Z,12.23
2018-11-06T16:12:19.168Z,12.33
2018-11-06T16:14:48.280Z,12.18
2018-11-06T16:17:17.073Z,11.80
2018-11-06T16:19:45.834Z,12.80
2018-11-06T16:22:14.627Z,12.50
2018-11-06T16:24:43.510Z,12.88
2018-11-06T16:27:12.305Z,12.98
2018-11-06T16:29:41.516Z,13.28
2018-11-06T16:32:10.293Z,12.98
2018-11-06T16:34:39.093Z,12.90
2018-11-06T16:37:07.892Z,12.80
2018-11-06T16:39:36.713Z,13.18
2018-11-06T16:42:05.974Z,12.95
2018-11-06T16:44:34.862Z,11.83
2018-11-06T16:47:03.647Z,11.97
2018-11-06T16:49:32.582Z,12.55
2018-11-06T16:52:01.529Z,12.75
2018-11-06T16:54:30.297Z,12.85
2018-11-06T16:56:59.168Z,12.35
2018-11-06T16:59:27.962Z,12.00
2018-11-06T17:01:56.798Z,12.55
2018-11-06T17:04:25.631Z,12.03
2018-11-06T17:06:54.414Z,12.50
2018-11-06T17:09:23.248Z,13.80
2018-11-06T17:11:52.037Z,12.73
2018-11-06T17:14:20.798Z,12.82
2018-11-06T17:16:49.633Z,12.65
2018-11-06T17:19:18.704Z,11.93
2018-11-06T17:21:47.504Z,13.13
2018-11-06T17:24:16.309Z,12.10
2018-11-06T17:26:45.143Z,13.65
2018-11-06T17:29:13.989Z,12.73
2018-11-06T17:31:42.798Z,12.43
2018-11-06T17:34:11.609Z,12.28
2018-11-06T17:36:40.695Z,13.55
2018-11-06T17:39:11.232Z,12.28
2018-11-06T17:41:40.065Z,12.78
2018-11-06T17:44:09.005Z,12.37
2018-11-06T17:46:37.983Z,11.78
2018-11-06T17:49:06.846Z,12.43
2018-11-06T17:51:35.923Z,11.55
2018-11-06T17:54:05.831Z,13.00
2018-11-06T17:56:34.874Z,12.55
2018-11-06T17:59:03.862Z,11.93
2018-11-06T18:01:33.010Z,12.25
2018-11-06T18:04:02.096Z,13.15
2018-11-06T18:06:31.208Z,12.98
2018-11-06T18:09:00.183Z,13.68
2018-11-06T18:11:29.293Z,12.93
2018-11-06T18:13:59.035Z,12.53
2018-11-06T18:16:27.902Z,12.30
2018-11-06T18:18:57.387Z,12.78
2018-11-06T18:21:26.221Z,12.47
2018-11-06T18:23:56.761Z,12.40
2018-11-06T18:26:26.312Z,12.53
2018-11-06T18:28:55.838Z,12.18
2018-11-06T18:34:02.144Z,12.15
2018-11-06T18:36:30.959Z,11.88
2018-11-06T18:38:59.766Z,12.80
2018-11-06T18:41:28.682Z,12.07
2018-11-06T18:43:57.634Z,12.50
2018-11-06T18:46:26.447Z,12.35
2018-11-06T18:48:55.285Z,11.90
2018-11-06T18:51:24.168Z,11.85
2018-11-06T18:53:53.039Z,12.43
2018-11-06T18:56:21.799Z,12.43
2018-11-06T18:58:50.618Z,12.55
2018-11-06T19:01:19.473Z,12.70
2018-11-06T19:03:48.366Z,11.75
2018-11-06T19:06:17.274Z,12.47
2018-11-06T19:08:46.120Z,11.93
2018-11-06T19:11:15.038Z,12.30
2018-11-06T19:13:44.232Z,12.40
2018-11-06T19:16:14.059Z,12.47
2018-11-06T19:18:43.338Z,11.63
2018-11-06T19:21:12.192Z,12.15
2018-11-06T19:23:41.001Z,11.60
2018-11-06T19:26:10.482Z,11.20
2018-11-06T19:28:39.356Z,11.88
2018-11-06T19:31:08.182Z,11.68
2018-11-06T19:33:37.547Z,11.28
2018-11-06T19:36:06.774Z,12.60
2018-11-06T19:38:35.735Z,11.48
2018-11-06T19:41:05.224Z,11.57
2018-11-06T19:43:34.372Z,10.80
2018-11-06T19:46:03.320Z,12.05
2018-11-06T19:48:32.479Z,11.65
2018-11-06T19:51:01.411Z,11.48
2018-11-06T19:53:30.723Z,12.20
2018-11-06T19:55:59.830Z,12.23
2018-11-06T19:58:28.968Z,10.85
2018-11-06T20:00:58.131Z,12.20
2018-11-06T20:03:27.057Z,10.90
2018-11-06T20:05:56.810Z,11.60
2018-11-06T20:08:25.892Z,11.78
2018-11-06T20:10:55.076Z,13.13
2018-11-06T20:13:24.557Z,11.20
2018-11-06T20:15:54.061Z,10.85
2018-11-06T20:18:22.935Z,11.05
2018-11-06T20:20:52.130Z,11.93
2018-11-06T20:23:22.422Z,11.10
2018-11-06T20:25:53.253Z,11.33
2018-11-06T20:28:22.457Z,11.03
2018-11-06T20:30:51.379Z,11.18
2018-11-06T20:33:20.716Z,11.50
2018-11-06T20:35:50.088Z,11.38
2018-11-06T20:38:18.951Z,10.82
2018-11-06T20:40:48.072Z,11.83
2018-11-06T20:43:17.382Z,10.40
2018-11-06T20:45:46.324Z,11.65
2018-11-06T20:48:19.372Z,10.63
2018-11-06T20:50:48.295Z,11.25
2018-11-06T20:53:17.184Z,11.18
2018-11-06T20:55:46.013Z,10.85
2018-11-06T20:58:14.895Z,11.12
2018-11-06T21:00:43.897Z,11.20
2018-11-06T21:03:12.807Z,10.82
2018-11-06T21:05:42.390Z,10.63
2018-11-06T21:08:11.308Z,11.30
2018-11-06T21:10:40.253Z,11.03
2018-11-06T21:13:09.226Z,11.12
2018-11-06T21:15:38.344Z,11.60
2018-11-06T21:18:07.646Z,11.90
2018-11-06T21:20:36.506Z,11.08
2018-11-06T21:23:05.397Z,10.65
2018-11-06T21:25:34.533Z,11.40
2018-11-06T21:28:03.296Z,11.57
2018-11-06T21:30:34.328Z,10.88
2018-11-06T21:33:03.521Z,10.60
2018-11-06T21:35:32.635Z,11.15
2018-11-06T21:38:01.727Z,10.32
2018-11-06T21:40:30.850Z,10.38
2018-11-06T21:42:59.884Z,11.60
2018-11-06T21:45:28.905Z,11.10
2018-11-06T21:47:58.216Z,10.63
2018-11-06T21:50:27.358Z,10.65
2018-11-06T21:52:56.346Z,10.38
2018-11-06T21:55:25.598Z,11.55
2018-11-06T21:57:54.751Z,10.88
2018-11-06T22:00:24.003Z,10.63
2018-11-06T22:02:53.042Z,10.72
2018-11-06T22:05:22.254Z,10.50
2018-11-06T22:07:51.340Z,10.43
2018-11-06T22:10:21.579Z,10.20
2018-11-06T22:12:50.839Z,10.32
2018-11-06T22:15:20.430Z,10.88
2018-11-06T22:17:49.609Z,10.35
2018-11-06T22:20:19.677Z,9.80
2018-11-06T22:22:49.080Z,10.78
2018-11-06T22:25:18.080Z,10.08
2018-11-06T22:27:47.358Z,10.10
2018-11-06T22:30:17.151Z,10.38
2018-11-06T22:32:46.651Z,10.53
2018-11-06T22:35:16.996Z,10.05
2018-11-06T22:37:46.124Z,9.75
2018-11-06T22:40:16.308Z,9.68
2018-11-06T22:42:45.361Z,10.40
2018-11-06T22:45:15.773Z,10.30
2018-11-06T22:47:44.933Z,9.68
2018-11-06T22:50:14.985Z,10.10
2018-11-06T22:52:44.596Z,9.90
2018-11-06T22:55:13.473Z,10.20
2018-11-06T22:57:42.838Z,9.53
2018-11-06T23:00:13.990Z,10.15
2018-11-06T23:02:43.385Z,10.15
2018-11-06T23:05:12.548Z,9.23
2018-11-06T23:07:46.706Z,9.75
2018-11-06T23:10:15.643Z,9.35
2018-11-06T23:12:44.678Z,9.05
2018-11-06T23:15:13.724Z,9.83
2018-11-06T23:17:42.947Z,9.83
2018-11-06T23:20:12.001Z,9.35
2018-11-06T23:22:41.280Z,9.83
2018-11-06T23:25:10.409Z,10.03
2018-11-06T23:27:39.487Z,9.25
2018-11-06T23:30:11.773Z,9.08
2018-11-06T23:32:40.983Z,9.40
2018-11-06T23:35:09.995Z,9.05
2018-11-06T23:37:39.263Z,9.75
2018-11-06T23:40:08.659Z,9.25
2018-11-06T23:42:37.686Z,8.88
2018-11-06T23:45:07.517Z,8.93
2018-11-06T23:47:36.545Z,8.43
2018-11-06T23:50:06.024Z,9.28
2018-11-06T23:52:35.081Z,9.28
2018-11-06T23:55:04.197Z,8.50
2018-11-06T23:57:33.388Z,8.90
